sensor_id;sensor_type;location;lat;lon;timestamp;P1;durP1;ratioP1;P2;durP2;ratioP2
21334;SDS011;69435;52.670;13.544;2023-05-02T00:00:54;8.70;;;7.77;;
21334;SDS011;69435;52.670;13.544;2023-05-02T00:03:40;11.17;;;7.00;;
21334;SDS011;69435;52.670;13.544;2023-05-02T00:06:29;8.47;;;7.40;;
21334;SDS011;69435;52.670;13.544;2023-05-02T00:09:16;7.73;;;6.67;;
21334;SDS011;69435;52.670;13.544;2023-05-02T00:12:02;7.33;;;6.33;;
21334;SDS011;69435;52.670;13.544;2023-05-02T00:14:48;8.03;;;7.03;;
21334;SDS011;69435;52.670;13.544;2023-05-02T00:17:35;8.10;;;7.20;;
21334;SDS011;69435;52.670;13.544;2023-05-02T00:20:24;9.10;;;7.57;;
21334;SDS011;69435;52.670;13.544;2023-05-02T00:23:11;7.40;;;6.80;;
21334;SDS011;69435;52.670;13.544;2023-05-02T00:25:57;9.97;;;7.10;;
21334;SDS011;69435;52.670;13.544;2023-05-02T00:28:43;7.33;;;6.43;;
21334;SDS011;69435;52.670;13.544;2023-05-02T00:31:29;7.50;;;6.70;;
21334;SDS011;69435;52.670;13.544;2023-05-02T00:34:15;7.27;;;6.57;;
21334;SDS011;69435;52.670;13.544;2023-05-02T00:37:01;6.50;;;5.90;;
21334;SDS011;69435;52.670;13.544;2023-05-02T00:39:47;7.43;;;6.17;;
21334;SDS011;69435;52.670;13.544;2023-05-02T00:42:33;6.67;;;6.07;;
21334;SDS011;69435;52.670;13.544;2023-05-02T00:45:20;6.97;;;6.37;;
21334;SDS011;69435;52.670;13.544;2023-05-02T00:48:07;8.47;;;6.63;;
21334;SDS011;69435;52.670;13.544;2023-05-02T00:50:53;8.87;;;6.70;;
21334;SDS011;69435;52.670;13.544;2023-05-02T00:53:41;6.60;;;6.00;;
21334;SDS011;69435;52.670;13.544;2023-05-02T00:56:27;6.73;;;6.23;;
21334;SDS011;69435;52.670;13.544;2023-05-02T00:59:13;11.13;;;6.13;;
21334;SDS011;69435;52.670;13.544;2023-05-02T01:02:28;8.03;;;6.17;;
21334;SDS011;69435;52.670;13.544;2023-05-02T01:05:24;7.13;;;6.00;;
21334;SDS011;69435;52.670;13.544;2023-05-02T01:08:29;7.23;;;5.47;;
21334;SDS011;69435;52.670;13.544;2023-05-02T01:11:36;5.87;;;5.30;;
21334;SDS011;69435;52.670;13.544;2023-05-02T01:14:40;6.40;;;5.83;;
21334;SDS011;69435;52.670;13.544;2023-05-02T01:17:30;8.77;;;6.27;;
21334;SDS011;69435;52.670;13.544;2023-05-02T01:20:19;6.97;;;5.87;;
21334;SDS011;69435;52.670;13.544;2023-05-02T01:23:21;6.13;;;5.43;;
21334;SDS011;69435;52.670;13.544;2023-05-02T01:26:23;6.60;;;5.80;;
21334;SDS011;69435;52.670;13.544;2023-05-02T01:29:42;6.13;;;5.63;;
21334;SDS011;69435;52.670;13.544;2023-05-02T01:32:32;7.70;;;5.73;;
21334;SDS011;69435;52.670;13.544;2023-05-02T01:35:23;6.53;;;5.50;;
21334;SDS011;69435;52.670;13.544;2023-05-02T01:38:13;6.80;;;6.17;;
21334;SDS011;69435;52.670;13.544;2023-05-02T01:41:02;7.60;;;5.80;;
21334;SDS011;69435;52.670;13.544;2023-05-02T01:43:52;6.10;;;5.50;;
21334;SDS011;69435;52.670;13.544;2023-05-02T01:46:44;6.33;;;5.77;;
21334;SDS011;69435;52.670;13.544;2023-05-02T01:49:32;5.97;;;5.37;;
21334;SDS011;69435;52.670;13.544;2023-05-02T01:52:20;7.00;;;4.97;;
21334;SDS011;69435;52.670;13.544;2023-05-02T01:55:08;5.50;;;5.10;;
21334;SDS011;69435;52.670;13.544;2023-05-02T01:57:58;10.50;;;5.10;;
21334;SDS011;69435;52.670;13.544;2023-05-02T02:00:45;5.40;;;4.90;;
21334;SDS011;69435;52.670;13.544;2023-05-02T02:03:32;7.87;;;4.77;;
21334;SDS011;69435;52.670;13.544;2023-05-02T02:06:18;6.27;;;4.50;;
21334;SDS011;69435;52.670;13.544;2023-05-02T02:09:06;6.63;;;4.30;;
21334;SDS011;69435;52.670;13.544;2023-05-02T02:11:56;5.17;;;4.67;;
21334;SDS011;69435;52.670;13.544;2023-05-02T02:14:55;6.40;;;4.50;;
21334;SDS011;69435;52.670;13.544;2023-05-02T02:17:56;7.13;;;4.93;;
21334;SDS011;69435;52.670;13.544;2023-05-02T02:20:46;7.33;;;4.70;;
21334;SDS011;69435;52.670;13.544;2023-05-02T02:23:35;6.37;;;4.47;;
21334;SDS011;69435;52.670;13.544;2023-05-02T02:26:23;7.03;;;4.67;;
21334;SDS011;69435;52.670;13.544;2023-05-02T02:29:09;4.60;;;4.17;;
21334;SDS011;69435;52.670;13.544;2023-05-02T02:31:56;10.37;;;4.73;;
21334;SDS011;69435;52.670;13.544;2023-05-02T02:34:42;6.97;;;3.80;;
21334;SDS011;69435;52.670;13.544;2023-05-02T02:37:34;5.03;;;3.93;;
21334;SDS011;69435;52.670;13.544;2023-05-02T02:40:28;6.27;;;4.57;;
21334;SDS011;69435;52.670;13.544;2023-05-02T02:43:47;4.57;;;4.10;;
21334;SDS011;69435;52.670;13.544;2023-05-02T02:49:50;4.90;;;4.40;;
21334;SDS011;69435;52.670;13.544;2023-05-02T02:53:15;6.47;;;3.97;;
21334;SDS011;69435;52.670;13.544;2023-05-02T02:56:16;4.57;;;3.70;;
21334;SDS011;69435;52.670;13.544;2023-05-02T03:02:16;5.43;;;4.00;;
21334;SDS011;69435;52.670;13.544;2023-05-02T03:05:06;5.77;;;4.10;;
21334;SDS011;69435;52.670;13.544;2023-05-02T03:07:55;4.70;;;4.20;;
21334;SDS011;69435;52.670;13.544;2023-05-02T03:10:45;4.13;;;3.70;;
21334;SDS011;69435;52.670;13.544;2023-05-02T03:13:30;10.80;;;4.60;;
21334;SDS011;69435;52.670;13.544;2023-05-02T03:16:33;5.13;;;4.17;;
21334;SDS011;69435;52.670;13.544;2023-05-02T03:19:24;5.30;;;4.33;;
21334;SDS011;69435;52.670;13.544;2023-05-02T03:22:10;6.37;;;3.93;;
21334;SDS011;69435;52.670;13.544;2023-05-02T03:24:56;4.00;;;3.60;;
21334;SDS011;69435;52.670;13.544;2023-05-02T03:27:42;5.90;;;4.90;;
21334;SDS011;69435;52.670;13.544;2023-05-02T03:30:28;6.17;;;3.90;;
21334;SDS011;69435;52.670;13.544;2023-05-02T03:33:14;4.60;;;3.80;;
21334;SDS011;69435;52.670;13.544;2023-05-02T03:36:00;4.93;;;3.53;;
21334;SDS011;69435;52.670;13.544;2023-05-02T03:38:47;4.33;;;3.60;;
21334;SDS011;69435;52.670;13.544;2023-05-02T03:41:32;4.17;;;3.77;;
21334;SDS011;69435;52.670;13.544;2023-05-02T03:44:18;6.53;;;3.77;;
21334;SDS011;69435;52.670;13.544;2023-05-02T03:47:04;7.47;;;3.73;;
21334;SDS011;69435;52.670;13.544;2023-05-02T03:49:51;5.63;;;3.87;;
21334;SDS011;69435;52.670;13.544;2023-05-02T03:52:37;5.47;;;4.00;;
21334;SDS011;69435;52.670;13.544;2023-05-02T03:55:23;5.00;;;4.00;;
21334;SDS011;69435;52.670;13.544;2023-05-02T03:58:09;13.20;;;4.00;;
21334;SDS011;69435;52.670;13.544;2023-05-02T04:00:55;4.13;;;3.63;;
21334;SDS011;69435;52.670;13.544;2023-05-02T04:03:42;5.40;;;3.83;;
21334;SDS011;69435;52.670;13.544;2023-05-02T04:06:28;5.47;;;3.80;;
21334;SDS011;69435;52.670;13.544;2023-05-02T04:09:14;5.23;;;3.50;;
21334;SDS011;69435;52.670;13.544;2023-05-02T04:12:00;5.30;;;3.93;;
21334;SDS011;69435;52.670;13.544;2023-05-02T04:14:46;6.53;;;3.60;;
21334;SDS011;69435;52.670;13.544;2023-05-02T04:17:32;5.00;;;3.97;;
21334;SDS011;69435;52.670;13.544;2023-05-02T04:20:19;9.23;;;4.37;;
21334;SDS011;69435;52.670;13.544;2023-05-02T04:23:05;4.77;;;4.30;;
21334;SDS011;69435;52.670;13.544;2023-05-02T04:25:51;9.27;;;4.70;;
21334;SDS011;69435;52.670;13.544;2023-05-02T04:28:38;6.90;;;4.13;;
21334;SDS011;69435;52.670;13.544;2023-05-02T04:31:24;4.03;;;3.73;;
21334;SDS011;69435;52.670;13.544;2023-05-02T04:34:11;13.17;;;4.27;;
21334;SDS011;69435;52.670;13.544;2023-05-02T04:36:57;5.37;;;4.67;;
21334;SDS011;69435;52.670;13.544;2023-05-02T04:39:45;7.53;;;3.97;;
21334;SDS011;69435;52.670;13.544;2023-05-02T04:42:31;6.00;;;3.90;;
21334;SDS011;69435;52.670;13.544;2023-05-02T04:45:17;6.40;;;3.70;;
21334;SDS011;69435;52.670;13.544;2023-05-02T04:48:03;5.53;;;3.93;;
21334;SDS011;69435;52.670;13.544;2023-05-02T04:50:50;4.77;;;3.50;;
21334;SDS011;69435;52.670;13.544;2023-05-02T04:53:37;7.03;;;3.80;;
21334;SDS011;69435;52.670;13.544;2023-05-02T04:56:24;6.00;;;3.87;;
21334;SDS011;69435;52.670;13.544;2023-05-02T04:59:10;3.87;;;3.50;;
21334;SDS011;69435;52.670;13.544;2023-05-02T05:01:56;4.17;;;3.50;;
21334;SDS011;69435;52.670;13.544;2023-05-02T05:04:42;4.50;;;3.70;;
21334;SDS011;69435;52.670;13.544;2023-05-02T05:07:30;4.43;;;3.63;;
21334;SDS011;69435;52.670;13.544;2023-05-02T05:10:15;8.30;;;3.60;;
21334;SDS011;69435;52.670;13.544;2023-05-02T05:13:01;8.40;;;4.53;;
21334;SDS011;69435;52.670;13.544;2023-05-02T05:15:48;7.87;;;3.60;;
21334;SDS011;69435;52.670;13.544;2023-05-02T05:18:35;3.47;;;3.17;;
21334;SDS011;69435;52.670;13.544;2023-05-02T05:21:24;9.67;;;3.80;;
21334;SDS011;69435;52.670;13.544;2023-05-02T05:24:11;6.70;;;4.00;;
21334;SDS011;69435;52.670;13.544;2023-05-02T05:26:57;16.77;;;4.83;;
21334;SDS011;69435;52.670;13.544;2023-05-02T05:29:44;8.23;;;4.43;;
21334;SDS011;69435;52.670;13.544;2023-05-02T05:32:31;5.10;;;4.60;;
21334;SDS011;69435;52.670;13.544;2023-05-02T05:35:18;7.57;;;4.00;;
21334;SDS011;69435;52.670;13.544;2023-05-02T05:38:03;6.63;;;4.47;;
21334;SDS011;69435;52.670;13.544;2023-05-02T05:40:49;5.27;;;4.10;;
21334;SDS011;69435;52.670;13.544;2023-05-02T05:43:35;6.43;;;4.00;;
21334;SDS011;69435;52.670;13.544;2023-05-02T05:46:21;6.37;;;3.90;;
21334;SDS011;69435;52.670;13.544;2023-05-02T05:49:07;4.40;;;4.00;;
21334;SDS011;69435;52.670;13.544;2023-05-02T05:51:54;4.37;;;3.93;;
21334;SDS011;69435;52.670;13.544;2023-05-02T05:54:40;4.13;;;3.57;;
21334;SDS011;69435;52.670;13.544;2023-05-02T05:57:26;6.47;;;3.27;;
21334;SDS011;69435;52.670;13.544;2023-05-02T06:00:12;6.47;;;4.27;;
21334;SDS011;69435;52.670;13.544;2023-05-02T06:02:59;10.67;;;4.43;;
21334;SDS011;69435;52.670;13.544;2023-05-02T06:05:45;4.87;;;4.30;;
21334;SDS011;69435;52.670;13.544;2023-05-02T06:08:31;6.13;;;4.13;;
21334;SDS011;69435;52.670;13.544;2023-05-02T06:11:17;7.23;;;5.00;;
21334;SDS011;69435;52.670;13.544;2023-05-02T06:14:03;6.00;;;4.53;;
21334;SDS011;69435;52.670;13.544;2023-05-02T06:16:49;6.10;;;4.70;;
21334;SDS011;69435;52.670;13.544;2023-05-02T06:19:35;5.40;;;4.90;;
21334;SDS011;69435;52.670;13.544;2023-05-02T06:22:21;7.47;;;5.10;;
21334;SDS011;69435;52.670;13.544;2023-05-02T06:25:07;5.70;;;5.20;;
21334;SDS011;69435;52.670;13.544;2023-05-02T06:27:53;6.63;;;4.70;;
21334;SDS011;69435;52.670;13.544;2023-05-02T06:30:40;6.33;;;5.17;;
21334;SDS011;69435;52.670;13.544;2023-05-02T06:33:30;6.63;;;4.90;;
21334;SDS011;69435;52.670;13.544;2023-05-02T06:36:17;8.37;;;4.80;;
21334;SDS011;69435;52.670;13.544;2023-05-02T06:39:03;7.37;;;5.87;;
21334;SDS011;69435;52.670;13.544;2023-05-02T06:41:49;11.23;;;5.83;;
21334;SDS011;69435;52.670;13.544;2023-05-02T06:44:35;8.63;;;5.73;;
21334;SDS011;69435;52.670;13.544;2023-05-02T06:47:21;7.00;;;5.53;;
21334;SDS011;69435;52.670;13.544;2023-05-02T06:50:08;7.70;;;6.40;;
21334;SDS011;69435;52.670;13.544;2023-05-02T06:52:55;8.30;;;6.57;;
21334;SDS011;69435;52.670;13.544;2023-05-02T06:55:43;11.30;;;6.37;;
21334;SDS011;69435;52.670;13.544;2023-05-02T06:58:30;7.93;;;5.57;;
21334;SDS011;69435;52.670;13.544;2023-05-02T07:01:16;7.27;;;6.00;;
21334;SDS011;69435;52.670;13.544;2023-05-02T07:04:05;5.77;;;4.77;;
21334;SDS011;69435;52.670;13.544;2023-05-02T07:06:54;5.13;;;4.67;;
21334;SDS011;69435;52.670;13.544;2023-05-02T07:09:40;4.70;;;4.07;;
21334;SDS011;69435;52.670;13.544;2023-05-02T07:12:26;4.67;;;4.27;;
21334;SDS011;69435;52.670;13.544;2023-05-02T07:15:13;5.53;;;4.33;;
21334;SDS011;69435;52.670;13.544;2023-05-02T07:18:00;4.30;;;3.90;;
21334;SDS011;69435;52.670;13.544;2023-05-02T07:20:46;3.87;;;3.57;;
21334;SDS011;69435;52.670;13.544;2023-05-02T07:23:33;4.03;;;3.63;;
21334;SDS011;69435;52.670;13.544;2023-05-02T07:26:19;3.80;;;3.43;;
21334;SDS011;69435;52.670;13.544;2023-05-02T07:29:07;4.17;;;3.73;;
21334;SDS011;69435;52.670;13.544;2023-05-02T07:31:54;5.73;;;3.07;;
21334;SDS011;69435;52.670;13.544;2023-05-02T07:34:40;4.47;;;3.00;;
21334;SDS011;69435;52.670;13.544;2023-05-02T07:37:30;3.00;;;2.80;;
21334;SDS011;69435;52.670;13.544;2023-05-02T07:40:21;3.40;;;3.10;;
21334;SDS011;69435;52.670;13.544;2023-05-02T07:43:09;3.30;;;3.07;;
21334;SDS011;69435;52.670;13.544;2023-05-02T07:45:56;5.33;;;3.00;;
21334;SDS011;69435;52.670;13.544;2023-05-02T07:48:42;3.00;;;2.70;;
21334;SDS011;69435;52.670;13.544;2023-05-02T07:51:29;2.40;;;2.30;;
21334;SDS011;69435;52.670;13.544;2023-05-02T07:54:16;2.93;;;2.17;;
21334;SDS011;69435;52.670;13.544;2023-05-02T07:57:03;2.57;;;2.27;;
21334;SDS011;69435;52.670;13.544;2023-05-02T07:59:52;8.17;;;2.87;;
21334;SDS011;69435;52.670;13.544;2023-05-02T08:02:41;2.67;;;2.47;;
21334;SDS011;69435;52.670;13.544;2023-05-02T08:05:28;2.10;;;2.00;;
21334;SDS011;69435;52.670;13.544;2023-05-02T08:08:14;1.43;;;1.33;;
21334;SDS011;69435;52.670;13.544;2023-05-02T08:11:00;1.40;;;1.33;;
21334;SDS011;69435;52.670;13.544;2023-05-02T08:13:47;1.50;;;1.40;;
21334;SDS011;69435;52.670;13.544;2023-05-02T08:16:35;2.90;;;1.43;;
21334;SDS011;69435;52.670;13.544;2023-05-02T08:19:21;2.93;;;1.93;;
21334;SDS011;69435;52.670;13.544;2023-05-02T08:22:07;2.40;;;1.97;;
21334;SDS011;69435;52.670;13.544;2023-05-02T08:24:53;2.30;;;2.20;;
21334;SDS011;69435;52.670;13.544;2023-05-02T08:27:40;2.87;;;2.60;;
21334;SDS011;69435;52.670;13.544;2023-05-02T08:30:26;2.60;;;2.40;;
21334;SDS011;69435;52.670;13.544;2023-05-02T08:33:12;2.10;;;2.00;;
21334;SDS011;69435;52.670;13.544;2023-05-02T08:35:59;2.00;;;1.90;;
21334;SDS011;69435;52.670;13.544;2023-05-02T08:38:45;2.13;;;2.03;;
21334;SDS011;69435;52.670;13.544;2023-05-02T08:41:31;3.30;;;2.67;;
21334;SDS011;69435;52.670;13.544;2023-05-02T08:44:17;2.40;;;2.30;;
21334;SDS011;69435;52.670;13.544;2023-05-02T08:47:04;3.43;;;2.20;;
21334;SDS011;69435;52.670;13.544;2023-05-02T08:49:51;2.10;;;2.00;;
21334;SDS011;69435;52.670;13.544;2023-05-02T08:52:40;4.27;;;2.20;;
21334;SDS011;69435;52.670;13.544;2023-05-02T08:55:29;2.67;;;2.47;;
21334;SDS011;69435;52.670;13.544;2023-05-02T08:58:16;2.87;;;2.67;;
21334;SDS011;69435;52.670;13.544;2023-05-02T09:01:09;3.47;;;3.17;;
21334;SDS011;69435;52.670;13.544;2023-05-02T09:04:00;5.57;;;3.43;;
21334;SDS011;69435;52.670;13.544;2023-05-02T09:06:48;3.13;;;2.93;;
21334;SDS011;69435;52.670;13.544;2023-05-02T09:09:35;4.67;;;4.27;;
21334;SDS011;69435;52.670;13.544;2023-05-02T09:12:25;3.83;;;3.53;;
21334;SDS011;69435;52.670;13.544;2023-05-02T09:15:15;4.57;;;3.63;;
21334;SDS011;69435;52.670;13.544;2023-05-02T09:18:01;4.33;;;3.93;;
21334;SDS011;69435;52.670;13.544;2023-05-02T09:20:48;3.77;;;3.47;;
21334;SDS011;69435;52.670;13.544;2023-05-02T09:23:38;3.67;;;3.37;;
21334;SDS011;69435;52.670;13.544;2023-05-02T09:26:29;2.60;;;2.40;;
21334;SDS011;69435;52.670;13.544;2023-05-02T09:29:18;5.00;;;3.03;;
21334;SDS011;69435;52.670;13.544;2023-05-02T09:32:06;5.13;;;3.17;;
21334;SDS011;69435;52.670;13.544;2023-05-02T09:35:05;3.13;;;2.90;;
21334;SDS011;69435;52.670;13.544;2023-05-02T09:37:52;2.80;;;2.60;;
21334;SDS011;69435;52.670;13.544;2023-05-02T09:40:52;3.13;;;2.93;;
21334;SDS011;69435;52.670;13.544;2023-05-02T09:43:40;3.33;;;2.77;;
21334;SDS011;69435;52.670;13.544;2023-05-02T09:46:27;2.67;;;2.47;;
21334;SDS011;69435;52.670;13.544;2023-05-02T09:49:42;2.87;;;2.67;;
21334;SDS011;69435;52.670;13.544;2023-05-02T09:52:30;2.90;;;2.70;;
21334;SDS011;69435;52.670;13.544;2023-05-02T09:55:19;3.20;;;2.97;;
21334;SDS011;69435;52.670;13.544;2023-05-02T09:58:06;3.13;;;2.90;;
21334;SDS011;69435;52.670;13.544;2023-05-02T10:01:06;3.20;;;2.90;;
21334;SDS011;69435;52.670;13.544;2023-05-02T10:03:58;8.97;;;5.53;;
21334;SDS011;69435;52.670;13.544;2023-05-02T10:06:44;7.73;;;5.07;;
21334;SDS011;69435;52.670;13.544;2023-05-02T10:09:35;5.40;;;4.90;;
21334;SDS011;69435;52.670;13.544;2023-05-02T10:12:28;6.93;;;4.53;;
21334;SDS011;69435;52.670;13.544;2023-05-02T10:15:17;4.30;;;3.87;;
21334;SDS011;69435;52.670;13.544;2023-05-02T10:18:10;5.13;;;4.67;;
21334;SDS011;69435;52.670;13.544;2023-05-02T10:21:03;5.67;;;3.53;;
21334;SDS011;69435;52.670;13.544;2023-05-02T10:23:54;2.67;;;2.47;;
21334;SDS011;69435;52.670;13.544;2023-05-02T10:26:43;2.53;;;2.33;;
21334;SDS011;69435;52.670;13.544;2023-05-02T10:29:31;2.17;;;1.90;;
21334;SDS011;69435;52.670;13.544;2023-05-02T10:32:18;2.60;;;2.30;;
21334;SDS011;69435;52.670;13.544;2023-05-02T10:35:07;9.23;;;2.47;;
21334;SDS011;69435;52.670;13.544;2023-05-02T10:37:53;2.60;;;2.37;;
21334;SDS011;69435;52.670;13.544;2023-05-02T10:40:42;2.40;;;2.20;;
21334;SDS011;69435;52.670;13.544;2023-05-02T10:43:40;5.43;;;2.13;;
21334;SDS011;69435;52.670;13.544;2023-05-02T10:46:32;4.33;;;2.00;;
21334;SDS011;69435;52.670;13.544;2023-05-02T10:49:25;5.20;;;2.00;;
21334;SDS011;69435;52.670;13.544;2023-05-02T10:55:29;2.17;;;1.77;;
21334;SDS011;69435;52.670;13.544;2023-05-02T10:58:19;2.70;;;2.27;;
21334;SDS011;69435;52.670;13.544;2023-05-02T11:04:13;3.57;;;1.80;;
21334;SDS011;69435;52.670;13.544;2023-05-02T11:13:09;3.27;;;2.80;;
21334;SDS011;69435;52.670;13.544;2023-05-02T11:15:55;5.13;;;2.63;;
21334;SDS011;69435;52.670;13.544;2023-05-02T11:18:57;5.77;;;3.30;;
21334;SDS011;69435;52.670;13.544;2023-05-02T11:21:45;3.70;;;3.30;;
21334;SDS011;69435;52.670;13.544;2023-05-02T11:30:42;4.70;;;3.30;;
21334;SDS011;69435;52.670;13.544;2023-05-02T11:33:32;4.73;;;3.20;;
21334;SDS011;69435;52.670;13.544;2023-05-02T11:36:26;5.97;;;3.90;;
21334;SDS011;69435;52.670;13.544;2023-05-02T11:39:18;9.53;;;4.57;;
21334;SDS011;69435;52.670;13.544;2023-05-02T11:42:06;5.30;;;3.77;;
21334;SDS011;69435;52.670;13.544;2023-05-02T11:44:58;5.43;;;3.17;;
21334;SDS011;69435;52.670;13.544;2023-05-02T11:47:46;10.03;;;2.90;;
21334;SDS011;69435;52.670;13.544;2023-05-02T11:50:33;2.73;;;2.33;;
21334;SDS011;69435;52.670;13.544;2023-05-02T11:53:30;4.80;;;2.63;;
21334;SDS011;69435;52.670;13.544;2023-05-02T11:56:22;6.03;;;3.20;;
21334;SDS011;69435;52.670;13.544;2023-05-02T11:59:09;6.73;;;3.13;;
21334;SDS011;69435;52.670;13.544;2023-05-02T12:01:55;9.17;;;2.80;;
21334;SDS011;69435;52.670;13.544;2023-05-02T12:04:42;7.70;;;3.47;;
21334;SDS011;69435;52.670;13.544;2023-05-02T12:07:38;5.63;;;2.70;;
21334;SDS011;69435;52.670;13.544;2023-05-02T12:10:35;3.60;;;2.17;;
21334;SDS011;69435;52.670;13.544;2023-05-02T12:13:24;5.27;;;2.53;;
21334;SDS011;69435;52.670;13.544;2023-05-02T12:16:11;12.10;;;2.80;;
21334;SDS011;69435;52.670;13.544;2023-05-02T12:18:57;4.17;;;2.53;;
21334;SDS011;69435;52.670;13.544;2023-05-02T12:21:45;9.23;;;2.73;;
21334;SDS011;69435;52.670;13.544;2023-05-02T12:24:32;4.50;;;2.70;;
21334;SDS011;69435;52.670;13.544;2023-05-02T12:27:20;4.57;;;2.30;;
21334;SDS011;69435;52.670;13.544;2023-05-02T12:30:07;3.77;;;2.43;;
21334;SDS011;69435;52.670;13.544;2023-05-02T12:32:57;4.20;;;2.03;;
21334;SDS011;69435;52.670;13.544;2023-05-02T12:35:46;3.60;;;2.03;;
21334;SDS011;69435;52.670;13.544;2023-05-02T12:38:32;4.97;;;2.67;;
21334;SDS011;69435;52.670;13.544;2023-05-02T12:41:29;4.03;;;2.20;;
21334;SDS011;69435;52.670;13.544;2023-05-02T12:44:34;4.67;;;2.40;;
21334;SDS011;69435;52.670;13.544;2023-05-02T12:47:23;3.47;;;2.40;;
21334;SDS011;69435;52.670;13.544;2023-05-02T12:50:09;4.20;;;2.20;;
21334;SDS011;69435;52.670;13.544;2023-05-02T12:52:54;4.50;;;2.50;;
21334;SDS011;69435;52.670;13.544;2023-05-02T12:55:44;4.60;;;2.60;;
21334;SDS011;69435;52.670;13.544;2023-05-02T12:58:38;6.63;;;2.80;;
21334;SDS011;69435;52.670;13.544;2023-05-02T13:01:27;7.17;;;3.10;;
21334;SDS011;69435;52.670;13.544;2023-05-02T13:04:14;12.97;;;2.67;;
21334;SDS011;69435;52.670;13.544;2023-05-02T13:07:00;4.17;;;3.00;;
21334;SDS011;69435;52.670;13.544;2023-05-02T13:09:46;8.23;;;3.03;;
21334;SDS011;69435;52.670;13.544;2023-05-02T13:12:32;6.10;;;2.57;;
21334;SDS011;69435;52.670;13.544;2023-05-02T13:15:21;6.07;;;2.73;;
21334;SDS011;69435;52.670;13.544;2023-05-02T13:18:07;5.00;;;2.90;;
21334;SDS011;69435;52.670;13.544;2023-05-02T13:20:54;7.07;;;2.90;;
21334;SDS011;69435;52.670;13.544;2023-05-02T13:23:40;6.77;;;2.77;;
21334;SDS011;69435;52.670;13.544;2023-05-02T13:26:26;5.30;;;3.00;;
21334;SDS011;69435;52.670;13.544;2023-05-02T13:29:11;6.03;;;2.83;;
21334;SDS011;69435;52.670;13.544;2023-05-02T13:31:57;5.23;;;3.07;;
21334;SDS011;69435;52.670;13.544;2023-05-02T13:34:43;5.77;;;2.93;;
21334;SDS011;69435;52.670;13.544;2023-05-02T13:37:30;6.27;;;3.30;;
21334;SDS011;69435;52.670;13.544;2023-05-02T13:40:16;5.17;;;2.80;;
21334;SDS011;69435;52.670;13.544;2023-05-02T13:43:02;7.27;;;2.57;;
21334;SDS011;69435;52.670;13.544;2023-05-02T13:45:48;5.43;;;3.60;;
21334;SDS011;69435;52.670;13.544;2023-05-02T13:48:36;6.27;;;3.00;;
21334;SDS011;69435;52.670;13.544;2023-05-02T13:51:22;6.30;;;2.93;;
21334;SDS011;69435;52.670;13.544;2023-05-02T13:54:09;4.03;;;2.60;;
21334;SDS011;69435;52.670;13.544;2023-05-02T13:56:55;5.97;;;2.60;;
21334;SDS011;69435;52.670;13.544;2023-05-02T13:59:41;3.53;;;2.63;;
21334;SDS011;69435;52.670;13.544;2023-05-02T14:02:27;6.37;;;2.70;;
21334;SDS011;69435;52.670;13.544;2023-05-02T14:05:13;6.10;;;2.83;;
21334;SDS011;69435;52.670;13.544;2023-05-02T14:07:59;8.47;;;3.63;;
21334;SDS011;69435;52.670;13.544;2023-05-02T14:10:45;5.80;;;2.77;;
21334;SDS011;69435;52.670;13.544;2023-05-02T14:13:31;5.17;;;2.60;;
21334;SDS011;69435;52.670;13.544;2023-05-02T14:16:17;6.13;;;3.00;;
21334;SDS011;69435;52.670;13.544;2023-05-02T14:19:03;10.07;;;2.87;;
21334;SDS011;69435;52.670;13.544;2023-05-02T14:21:50;6.30;;;2.73;;
21334;SDS011;69435;52.670;13.544;2023-05-02T14:24:36;7.77;;;2.73;;
21334;SDS011;69435;52.670;13.544;2023-05-02T14:27:22;6.30;;;2.57;;
21334;SDS011;69435;52.670;13.544;2023-05-02T14:30:08;6.03;;;2.47;;
21334;SDS011;69435;52.670;13.544;2023-05-02T14:32:54;3.67;;;2.70;;
21334;SDS011;69435;52.670;13.544;2023-05-02T14:35:40;3.83;;;2.93;;
21334;SDS011;69435;52.670;13.544;2023-05-02T14:38:26;5.87;;;2.30;;
21334;SDS011;69435;52.670;13.544;2023-05-02T14:41:12;8.40;;;2.87;;
21334;SDS011;69435;52.670;13.544;2023-05-02T14:43:58;5.70;;;2.80;;
21334;SDS011;69435;52.670;13.544;2023-05-02T14:46:44;5.67;;;2.57;;
21334;SDS011;69435;52.670;13.544;2023-05-02T14:49:30;7.63;;;3.10;;
21334;SDS011;69435;52.670;13.544;2023-05-02T14:52:17;6.37;;;2.90;;
21334;SDS011;69435;52.670;13.544;2023-05-02T14:55:03;4.97;;;2.80;;
21334;SDS011;69435;52.670;13.544;2023-05-02T14:57:50;7.83;;;2.63;;
21334;SDS011;69435;52.670;13.544;2023-05-02T15:00:37;8.67;;;2.60;;
21334;SDS011;69435;52.670;13.544;2023-05-02T15:03:23;4.83;;;2.97;;
21334;SDS011;69435;52.670;13.544;2023-05-02T15:06:10;6.87;;;2.90;;
21334;SDS011;69435;52.670;13.544;2023-05-02T15:08:56;6.13;;;3.33;;
21334;SDS011;69435;52.670;13.544;2023-05-02T15:11:43;6.30;;;2.73;;
21334;SDS011;69435;52.670;13.544;2023-05-02T15:14:29;5.53;;;2.83;;
21334;SDS011;69435;52.670;13.544;2023-05-02T15:17:15;7.67;;;3.73;;
21334;SDS011;69435;52.670;13.544;2023-05-02T15:20:01;9.07;;;2.97;;
21334;SDS011;69435;52.670;13.544;2023-05-02T15:22:48;7.60;;;2.87;;
21334;SDS011;69435;52.670;13.544;2023-05-02T15:25:35;6.23;;;2.90;;
21334;SDS011;69435;52.670;13.544;2023-05-02T15:28:21;5.40;;;2.80;;
21334;SDS011;69435;52.670;13.544;2023-05-02T15:31:07;4.93;;;2.77;;
21334;SDS011;69435;52.670;13.544;2023-05-02T15:33:54;10.50;;;3.27;;
21334;SDS011;69435;52.670;13.544;2023-05-02T15:36:40;7.37;;;3.07;;
21334;SDS011;69435;52.670;13.544;2023-05-02T15:39:27;7.37;;;3.13;;
21334;SDS011;69435;52.670;13.544;2023-05-02T15:42:13;5.87;;;2.43;;
21334;SDS011;69435;52.670;13.544;2023-05-02T15:44:59;6.33;;;2.70;;
21334;SDS011;69435;52.670;13.544;2023-05-02T15:47:45;9.57;;;3.17;;
21334;SDS011;69435;52.670;13.544;2023-05-02T15:50:32;4.63;;;2.50;;
21334;SDS011;69435;52.670;13.544;2023-05-02T15:53:22;2.50;;;2.30;;
21334;SDS011;69435;52.670;13.544;2023-05-02T15:56:10;12.70;;;3.00;;
21334;SDS011;69435;52.670;13.544;2023-05-02T15:58:56;6.80;;;2.67;;
21334;SDS011;69435;52.670;13.544;2023-05-02T16:01:43;3.60;;;2.87;;
21334;SDS011;69435;52.670;13.544;2023-05-02T16:04:29;4.73;;;2.70;;
21334;SDS011;69435;52.670;13.544;2023-05-02T16:07:20;5.20;;;2.37;;
21334;SDS011;69435;52.670;13.544;2023-05-02T16:10:06;6.23;;;2.97;;
21334;SDS011;69435;52.670;13.544;2023-05-02T16:12:56;3.43;;;2.53;;
21334;SDS011;69435;52.670;13.544;2023-05-02T16:15:43;9.33;;;2.67;;
21334;SDS011;69435;52.670;13.544;2023-05-02T16:18:33;11.47;;;3.30;;
21334;SDS011;69435;52.670;13.544;2023-05-02T16:21:19;6.10;;;2.80;;
21334;SDS011;69435;52.670;13.544;2023-05-02T16:24:06;11.17;;;3.27;;
21334;SDS011;69435;52.670;13.544;2023-05-02T16:26:53;5.70;;;3.23;;
21334;SDS011;69435;52.670;13.544;2023-05-02T16:29:39;5.57;;;3.13;;
21334;SDS011;69435;52.670;13.544;2023-05-02T16:32:26;20.33;;;4.13;;
21334;SDS011;69435;52.670;13.544;2023-05-02T16:35:12;6.47;;;2.97;;
21334;SDS011;69435;52.670;13.544;2023-05-02T16:37:59;4.93;;;2.67;;
21334;SDS011;69435;52.670;13.544;2023-05-02T16:40:45;7.20;;;3.30;;
21334;SDS011;69435;52.670;13.544;2023-05-02T16:43:31;10.77;;;3.10;;
21334;SDS011;69435;52.670;13.544;2023-05-02T16:46:18;8.90;;;2.63;;
21334;SDS011;69435;52.670;13.544;2023-05-02T16:49:04;10.70;;;2.60;;
21334;SDS011;69435;52.670;13.544;2023-05-02T16:51:51;5.47;;;2.80;;
21334;SDS011;69435;52.670;13.544;2023-05-02T16:54:39;3.93;;;2.30;;
21334;SDS011;69435;52.670;13.544;2023-05-02T16:57:25;3.53;;;2.77;;
21334;SDS011;69435;52.670;13.544;2023-05-02T17:00:11;6.70;;;3.07;;
21334;SDS011;69435;52.670;13.544;2023-05-02T17:02:59;4.60;;;2.73;;